sensor_id;sensor_type;location;lat;lon;timestamp;P1;durP1;ratioP1;P2;durP2;ratioP2
27543;SDS011;17996;51.056;3.656;2023-06-24T00:01:51;7.93;;;6.00;;
27543;SDS011;17996;51.056;3.656;2023-06-24T00:04:17;7.15;;;5.82;;
27543;SDS011;17996;51.056;3.656;2023-06-24T00:06:44;7.70;;;5.75;;
27543;SDS011;17996;51.056;3.656;2023-06-24T00:09:09;7.70;;;5.80;;
27543;SDS011;17996;51.056;3.656;2023-06-24T00:11:35;9.85;;;5.70;;
27543;SDS011;17996;51.056;3.656;2023-06-24T00:14:01;8.27;;;6.15;;
27543;SDS011;17996;51.056;3.656;2023-06-24T00:16:27;8.40;;;6.10;;
27543;SDS011;17996;51.056;3.656;2023-06-24T00:18:53;9.15;;;6.45;;
27543;SDS011;17996;51.056;3.656;2023-06-24T00:21:20;10.90;;;6.10;;
27543;SDS011;17996;51.056;3.656;2023-06-24T00:23:48;8.23;;;6.03;;
27543;SDS011;17996;51.056;3.656;2023-06-24T00:26:14;9.80;;;6.65;;
27543;SDS011;17996;51.056;3.656;2023-06-24T00:28:41;7.38;;;6.10;;
27543;SDS011;17996;51.056;3.656;2023-06-24T00:31:07;14.57;;;7.35;;
27543;SDS011;17996;51.056;3.656;2023-06-24T00:33:32;11.65;;;6.70;;
27543;SDS011;17996;51.056;3.656;2023-06-24T00:36:01;8.50;;;6.78;;
27543;SDS011;17996;51.056;3.656;2023-06-24T00:38:27;9.35;;;6.30;;
27543;SDS011;17996;51.056;3.656;2023-06-24T00:40:58;10.80;;;7.43;;
27543;SDS011;17996;51.056;3.656;2023-06-24T00:43:25;9.90;;;7.10;;
27543;SDS011;17996;51.056;3.656;2023-06-24T00:45:52;8.88;;;6.55;;
27543;SDS011;17996;51.056;3.656;2023-06-24T00:48:18;12.25;;;7.93;;
27543;SDS011;17996;51.056;3.656;2023-06-24T00:50:45;8.48;;;6.70;;
27543;SDS011;17996;51.056;3.656;2023-06-24T00:53:11;8.45;;;6.80;;
27543;SDS011;17996;51.056;3.656;2023-06-24T00:55:39;8.10;;;6.10;;
27543;SDS011;17996;51.056;3.656;2023-06-24T00:58:05;8.23;;;6.32;;
27543;SDS011;17996;51.056;3.656;2023-06-24T01:00:32;8.95;;;6.57;;
27543;SDS011;17996;51.056;3.656;2023-06-24T01:02:59;11.30;;;6.32;;
27543;SDS011;17996;51.056;3.656;2023-06-24T01:05:25;15.52;;;7.88;;
27543;SDS011;17996;51.056;3.656;2023-06-24T01:07:54;11.50;;;7.13;;
27543;SDS011;17996;51.056;3.656;2023-06-24T01:10:22;13.05;;;7.60;;
27543;SDS011;17996;51.056;3.656;2023-06-24T01:12:49;9.45;;;7.35;;
27543;SDS011;17996;51.056;3.656;2023-06-24T01:15:14;10.10;;;7.43;;
27543;SDS011;17996;51.056;3.656;2023-06-24T01:18:30;11.73;;;7.82;;
27543;SDS011;17996;51.056;3.656;2023-06-24T01:26:54;9.48;;;6.97;;
27543;SDS011;17996;51.056;3.656;2023-06-24T01:29:59;8.80;;;6.65;;
27543;SDS011;17996;51.056;3.656;2023-06-24T01:32:53;7.57;;;6.65;;
27543;SDS011;17996;51.056;3.656;2023-06-24T01:35:23;7.32;;;6.55;;
27543;SDS011;17996;51.056;3.656;2023-06-24T01:37:54;9.00;;;7.15;;
27543;SDS011;17996;51.056;3.656;2023-06-24T01:40:26;12.10;;;7.32;;
27543;SDS011;17996;51.056;3.656;2023-06-24T01:42:56;8.82;;;6.90;;
27543;SDS011;17996;51.056;3.656;2023-06-24T01:45:26;9.90;;;6.50;;
27543;SDS011;17996;51.056;3.656;2023-06-24T01:48:00;9.30;;;6.45;;
27543;SDS011;17996;51.056;3.656;2023-06-24T01:50:33;8.37;;;6.93;;
27543;SDS011;17996;51.056;3.656;2023-06-24T01:53:01;11.60;;;7.72;;
27543;SDS011;17996;51.056;3.656;2023-06-24T01:55:30;8.68;;;6.93;;
27543;SDS011;17996;51.056;3.656;2023-06-24T01:57:59;7.20;;;5.97;;
27543;SDS011;17996;51.056;3.656;2023-06-24T02:00:26;9.00;;;6.38;;
27543;SDS011;17996;51.056;3.656;2023-06-24T02:02:54;8.00;;;6.90;;
27543;SDS011;17996;51.056;3.656;2023-06-24T02:05:20;8.13;;;6.35;;
27543;SDS011;17996;51.056;3.656;2023-06-24T02:07:49;10.50;;;6.60;;
27543;SDS011;17996;51.056;3.656;2023-06-24T02:10:17;7.70;;;6.50;;
27543;SDS011;17996;51.056;3.656;2023-06-24T02:12:45;8.63;;;7.05;;
27543;SDS011;17996;51.056;3.656;2023-06-24T02:15:12;9.27;;;7.00;;
27543;SDS011;17996;51.056;3.656;2023-06-24T02:17:39;9.48;;;7.45;;
27543;SDS011;17996;51.056;3.656;2023-06-24T02:20:06;10.60;;;6.80;;
27543;SDS011;17996;51.056;3.656;2023-06-24T02:22:37;9.98;;;6.82;;
27543;SDS011;17996;51.056;3.656;2023-06-24T02:25:04;8.75;;;6.38;;
27543;SDS011;17996;51.056;3.656;2023-06-24T02:27:32;15.50;;;7.40;;
27543;SDS011;17996;51.056;3.656;2023-06-24T02:30:00;13.77;;;7.83;;
27543;SDS011;17996;51.056;3.656;2023-06-24T02:32:27;8.35;;;6.63;;
27543;SDS011;17996;51.056;3.656;2023-06-24T02:34:52;10.02;;;7.43;;
27543;SDS011;17996;51.056;3.656;2023-06-24T02:37:18;9.93;;;6.65;;
27543;SDS011;17996;51.056;3.656;2023-06-24T02:39:45;10.93;;;7.43;;
27543;SDS011;17996;51.056;3.656;2023-06-24T02:42:11;7.97;;;6.60;;
27543;SDS011;17996;51.056;3.656;2023-06-24T02:44:37;8.65;;;7.00;;
27543;SDS011;17996;51.056;3.656;2023-06-24T02:47:05;9.77;;;6.47;;
27543;SDS011;17996;51.056;3.656;2023-06-24T02:49:34;8.18;;;7.07;;
27543;SDS011;17996;51.056;3.656;2023-06-24T02:52:02;9.48;;;7.15;;
27543;SDS011;17996;51.056;3.656;2023-06-24T02:54:34;7.55;;;6.65;;
27543;SDS011;17996;51.056;3.656;2023-06-24T02:57:04;8.20;;;6.78;;
27543;SDS011;17996;51.056;3.656;2023-06-24T02:59:30;11.07;;;8.00;;
27543;SDS011;17996;51.056;3.656;2023-06-24T03:01:56;8.32;;;7.47;;
27543;SDS011;17996;51.056;3.656;2023-06-24T03:04:22;11.90;;;8.02;;
27543;SDS011;17996;51.056;3.656;2023-06-24T03:06:49;8.98;;;8.07;;
27543;SDS011;17996;51.056;3.656;2023-06-24T03:09:16;9.32;;;7.25;;
27543;SDS011;17996;51.056;3.656;2023-06-24T03:11:42;8.13;;;7.32;;
27543;SDS011;17996;51.056;3.656;2023-06-24T03:14:10;8.20;;;7.38;;
27543;SDS011;17996;51.056;3.656;2023-06-24T03:16:36;10.65;;;7.72;;
27543;SDS011;17996;51.056;3.656;2023-06-24T03:19:03;11.52;;;8.38;;
27543;SDS011;17996;51.056;3.656;2023-06-24T03:21:30;10.52;;;7.75;;
27543;SDS011;17996;51.056;3.656;2023-06-24T03:23:56;10.05;;;8.23;;
27543;SDS011;17996;51.056;3.656;2023-06-24T03:26:23;11.27;;;8.50;;
27543;SDS011;17996;51.056;3.656;2023-06-24T03:28:57;13.35;;;8.20;;
27543;SDS011;17996;51.056;3.656;2023-06-24T03:31:23;13.80;;;7.93;;
27543;SDS011;17996;51.056;3.656;2023-06-24T03:33:49;11.48;;;8.05;;
27543;SDS011;17996;51.056;3.656;2023-06-24T03:36:16;10.30;;;8.27;;
27543;SDS011;17996;51.056;3.656;2023-06-24T03:38:41;10.13;;;8.40;;
27543;SDS011;17996;51.056;3.656;2023-06-24T03:41:07;14.02;;;8.70;;
27543;SDS011;17996;51.056;3.656;2023-06-24T03:43:33;12.05;;;8.65;;
27543;SDS011;17996;51.056;3.656;2023-06-24T03:45:58;9.55;;;8.27;;
27543;SDS011;17996;51.056;3.656;2023-06-24T03:48:25;11.50;;;8.38;;
27543;SDS011;17996;51.056;3.656;2023-06-24T03:50:51;10.88;;;8.90;;
27543;SDS011;17996;51.056;3.656;2023-06-24T03:53:16;13.85;;;8.25;;
27543;SDS011;17996;51.056;3.656;2023-06-24T03:55:42;11.63;;;8.30;;
27543;SDS011;17996;51.056;3.656;2023-06-24T03:58:08;9.90;;;8.48;;
27543;SDS011;17996;51.056;3.656;2023-06-24T04:00:33;12.13;;;8.77;;
27543;SDS011;17996;51.056;3.656;2023-06-24T04:03:04;13.32;;;8.88;;
27543;SDS011;17996;51.056;3.656;2023-06-24T04:05:29;10.60;;;9.13;;
27543;SDS011;17996;51.056;3.656;2023-06-24T04:07:55;10.82;;;8.23;;
27543;SDS011;17996;51.056;3.656;2023-06-24T04:10:21;10.05;;;8.88;;
27543;SDS011;17996;51.056;3.656;2023-06-24T04:12:46;12.85;;;8.70;;
27543;SDS011;17996;51.056;3.656;2023-06-24T04:15:12;12.13;;;8.65;;
27543;SDS011;17996;51.056;3.656;2023-06-24T04:17:38;15.38;;;9.35;;
27543;SDS011;17996;51.056;3.656;2023-06-24T04:20:04;17.20;;;9.43;;
27543;SDS011;17996;51.056;3.656;2023-06-24T04:22:33;12.95;;;8.85;;
27543;SDS011;17996;51.056;3.656;2023-06-24T04:25:00;15.77;;;9.45;;
27543;SDS011;17996;51.056;3.656;2023-06-24T04:27:26;12.43;;;9.32;;
27543;SDS011;17996;51.056;3.656;2023-06-24T04:29:52;9.77;;;8.10;;
27543;SDS011;17996;51.056;3.656;2023-06-24T04:32:18;13.15;;;10.23;;
27543;SDS011;17996;51.056;3.656;2023-06-24T04:34:44;14.20;;;9.73;;
27543;SDS011;17996;51.056;3.656;2023-06-24T04:37:11;12.45;;;9.50;;
27543;SDS011;17996;51.056;3.656;2023-06-24T04:39:36;15.32;;;9.77;;
27543;SDS011;17996;51.056;3.656;2023-06-24T04:42:02;10.63;;;8.65;;
27543;SDS011;17996;51.056;3.656;2023-06-24T04:44:28;14.93;;;9.77;;
27543;SDS011;17996;51.056;3.656;2023-06-24T04:46:53;11.52;;;9.23;;
27543;SDS011;17996;51.056;3.656;2023-06-24T04:49:20;13.48;;;9.80;;
27543;SDS011;17996;51.056;3.656;2023-06-24T04:51:47;14.82;;;9.60;;
27543;SDS011;17996;51.056;3.656;2023-06-24T04:54:14;14.73;;;9.35;;
27543;SDS011;17996;51.056;3.656;2023-06-24T04:56:40;11.00;;;9.02;;
27543;SDS011;17996;51.056;3.656;2023-06-24T04:59:06;17.25;;;10.32;;
27543;SDS011;17996;51.056;3.656;2023-06-24T05:01:32;16.63;;;10.18;;
27543;SDS011;17996;51.056;3.656;2023-06-24T05:03:58;14.57;;;10.07;;
27543;SDS011;17996;51.056;3.656;2023-06-24T05:06:25;15.20;;;9.50;;
27543;SDS011;17996;51.056;3.656;2023-06-24T05:08:50;15.93;;;9.98;;
27543;SDS011;17996;51.056;3.656;2023-06-24T05:11:16;21.30;;;9.90;;
27543;SDS011;17996;51.056;3.656;2023-06-24T05:13:42;17.27;;;11.27;;
27543;SDS011;17996;51.056;3.656;2023-06-24T05:16:07;14.15;;;10.77;;
27543;SDS011;17996;51.056;3.656;2023-06-24T05:18:33;14.15;;;10.77;;
27543;SDS011;17996;51.056;3.656;2023-06-24T05:20:59;13.07;;;10.80;;
27543;SDS011;17996;51.056;3.656;2023-06-24T05:23:24;12.90;;;10.48;;
27543;SDS011;17996;51.056;3.656;2023-06-24T05:25:50;13.05;;;10.25;;
27543;SDS011;17996;51.056;3.656;2023-06-24T05:28:15;13.75;;;10.82;;
27543;SDS011;17996;51.056;3.656;2023-06-24T05:30:41;15.90;;;10.52;;
27543;SDS011;17996;51.056;3.656;2023-06-24T05:33:07;15.10;;;11.45;;
27543;SDS011;17996;51.056;3.656;2023-06-24T05:35:32;15.52;;;10.43;;
27543;SDS011;17996;51.056;3.656;2023-06-24T05:37:58;16.98;;;11.02;;
27543;SDS011;17996;51.056;3.656;2023-06-24T05:40:24;17.10;;;11.05;;
27543;SDS011;17996;51.056;3.656;2023-06-24T05:42:49;13.98;;;11.60;;
27543;SDS011;17996;51.056;3.656;2023-06-24T05:45:17;15.43;;;12.20;;
27543;SDS011;17996;51.056;3.656;2023-06-24T05:47:42;15.55;;;11.88;;
27543;SDS011;17996;51.056;3.656;2023-06-24T05:50:08;18.30;;;11.82;;
27543;SDS011;17996;51.056;3.656;2023-06-24T05:52:34;14.95;;;11.02;;
27543;SDS011;17996;51.056;3.656;2023-06-24T05:55:00;14.70;;;11.93;;
27543;SDS011;17996;51.056;3.656;2023-06-24T05:57:25;13.18;;;11.70;;
27543;SDS011;17996;51.056;3.656;2023-06-24T05:59:51;15.40;;;11.95;;
27543;SDS011;17996;51.056;3.656;2023-06-24T06:02:17;19.15;;;13.50;;
27543;SDS011;17996;51.056;3.656;2023-06-24T06:04:42;20.38;;;13.48;;
27543;SDS011;17996;51.056;3.656;2023-06-24T06:07:08;15.63;;;13.25;;
27543;SDS011;17996;51.056;3.656;2023-06-24T06:09:34;19.98;;;12.30;;
27543;SDS011;17996;51.056;3.656;2023-06-24T06:11:59;20.00;;;13.88;;
27543;SDS011;17996;51.056;3.656;2023-06-24T06:14:25;17.02;;;14.02;;
27543;SDS011;17996;51.056;3.656;2023-06-24T06:16:52;18.33;;;13.10;;
27543;SDS011;17996;51.056;3.656;2023-06-24T06:19:17;22.67;;;15.10;;
27543;SDS011;17996;51.056;3.656;2023-06-24T06:21:43;17.45;;;14.55;;
27543;SDS011;17996;51.056;3.656;2023-06-24T06:24:08;20.52;;;15.60;;
27543;SDS011;17996;51.056;3.656;2023-06-24T06:26:34;20.98;;;15.73;;
27543;SDS011;17996;51.056;3.656;2023-06-24T06:29:05;17.58;;;15.25;;
27543;SDS011;17996;51.056;3.656;2023-06-24T06:31:30;22.60;;;16.90;;
27543;SDS011;17996;51.056;3.656;2023-06-24T06:33:56;23.13;;;16.67;;
27543;SDS011;17996;51.056;3.656;2023-06-24T06:36:22;22.05;;;16.90;;
27543;SDS011;17996;51.056;3.656;2023-06-24T06:38:47;20.63;;;16.80;;
27543;SDS011;17996;51.056;3.656;2023-06-24T06:41:14;20.95;;;15.90;;
27543;SDS011;17996;51.056;3.656;2023-06-24T06:43:40;19.83;;;16.73;;
27543;SDS011;17996;51.056;3.656;2023-06-24T06:46:06;21.42;;;13.57;;
27543;SDS011;17996;51.056;3.656;2023-06-24T06:48:32;16.15;;;13.38;;
27543;SDS011;17996;51.056;3.656;2023-06-24T06:50:57;22.73;;;15.07;;
27543;SDS011;17996;51.056;3.656;2023-06-24T06:53:23;20.50;;;16.60;;
27543;SDS011;17996;51.056;3.656;2023-06-24T06:55:49;23.27;;;15.32;;
27543;SDS011;17996;51.056;3.656;2023-06-24T06:58:14;22.38;;;17.00;;
27543;SDS011;17996;51.056;3.656;2023-06-24T07:00:40;18.70;;;16.52;;
27543;SDS011;17996;51.056;3.656;2023-06-24T07:03:06;27.00;;;16.75;;
27543;SDS011;17996;51.056;3.656;2023-06-24T07:05:31;21.17;;;16.73;;
27543;SDS011;17996;51.056;3.656;2023-06-24T07:07:57;20.52;;;16.65;;
27543;SDS011;17996;51.056;3.656;2023-06-24T07:10:23;32.20;;;19.27;;
27543;SDS011;17996;51.056;3.656;2023-06-24T07:12:48;25.30;;;17.73;;
27543;SDS011;17996;51.056;3.656;2023-06-24T07:15:14;22.23;;;18.30;;
27543;SDS011;17996;51.056;3.656;2023-06-24T07:17:41;21.50;;;16.08;;
27543;SDS011;17996;51.056;3.656;2023-06-24T07:20:06;19.63;;;15.90;;
27543;SDS011;17996;51.056;3.656;2023-06-24T07:22:32;21.70;;;14.88;;
27543;SDS011;17996;51.056;3.656;2023-06-24T07:24:58;20.70;;;17.02;;
27543;SDS011;17996;51.056;3.656;2023-06-24T07:27:25;19.95;;;16.40;;
27543;SDS011;17996;51.056;3.656;2023-06-24T07:29:51;21.55;;;15.65;;
27543;SDS011;17996;51.056;3.656;2023-06-24T07:32:16;19.17;;;17.13;;
27543;SDS011;17996;51.056;3.656;2023-06-24T07:34:42;24.23;;;16.92;;
27543;SDS011;17996;51.056;3.656;2023-06-24T07:37:07;22.90;;;15.75;;
27543;SDS011;17996;51.056;3.656;2023-06-24T07:39:33;24.25;;;18.05;;
27543;SDS011;17996;51.056;3.656;2023-06-24T07:41:59;24.88;;;19.75;;
27543;SDS011;17996;51.056;3.656;2023-06-24T07:44:24;23.40;;;17.38;;
27543;SDS011;17996;51.056;3.656;2023-06-24T07:46:50;22.45;;;17.80;;
27543;SDS011;17996;51.056;3.656;2023-06-24T07:49:17;26.77;;;19.38;;
27543;SDS011;17996;51.056;3.656;2023-06-24T07:51:43;21.88;;;18.40;;
27543;SDS011;17996;51.056;3.656;2023-06-24T07:54:10;26.38;;;20.52;;
27543;SDS011;17996;51.056;3.656;2023-06-24T07:56:36;24.77;;;17.75;;
27543;SDS011;17996;51.056;3.656;2023-06-24T07:59:02;22.20;;;17.50;;
27543;SDS011;17996;51.056;3.656;2023-06-24T08:01:28;20.15;;;16.80;;
27543;SDS011;17996;51.056;3.656;2023-06-24T08:03:53;25.38;;;20.60;;
27543;SDS011;17996;51.056;3.656;2023-06-24T08:06:19;23.95;;;16.63;;
27543;SDS011;17996;51.056;3.656;2023-06-24T08:08:45;27.55;;;18.00;;
27543;SDS011;17996;51.056;3.656;2023-06-24T08:11:11;23.85;;;16.40;;
27543;SDS011;17996;51.056;3.656;2023-06-24T08:13:38;26.48;;;15.80;;
27543;SDS011;17996;51.056;3.656;2023-06-24T08:16:04;23.50;;;20.15;;
27543;SDS011;17996;51.056;3.656;2023-06-24T08:18:30;28.05;;;20.92;;
27543;SDS011;17996;51.056;3.656;2023-06-24T08:20:56;23.75;;;18.58;;
27543;SDS011;17996;51.056;3.656;2023-06-24T08:23:22;28.60;;;17.00;;
27543;SDS011;17996;51.056;3.656;2023-06-24T08:25:47;25.05;;;19.35;;
27543;SDS011;17996;51.056;3.656;2023-06-24T08:28:13;23.80;;;18.73;;
27543;SDS011;17996;51.056;3.656;2023-06-24T08:30:39;26.85;;;16.80;;
27543;SDS011;17996;51.056;3.656;2023-06-24T08:33:04;20.33;;;17.42;;
27543;SDS011;17996;51.056;3.656;2023-06-24T08:35:30;20.10;;;15.02;;
27543;SDS011;17996;51.056;3.656;2023-06-24T08:37:55;22.80;;;16.30;;
27543;SDS011;17996;51.056;3.656;2023-06-24T08:40:21;19.40;;;15.82;;
27543;SDS011;17996;51.056;3.656;2023-06-24T08:42:47;19.38;;;14.98;;
27543;SDS011;17996;51.056;3.656;2023-06-24T08:45:12;14.52;;;12.32;;
27543;SDS011;17996;51.056;3.656;2023-06-24T08:47:38;23.33;;;17.67;;
27543;SDS011;17996;51.056;3.656;2023-06-24T08:50:07;18.85;;;14.30;;
27543;SDS011;17996;51.056;3.656;2023-06-24T08:52:39;21.50;;;15.88;;
27543;SDS011;17996;51.056;3.656;2023-06-24T08:55:15;21.30;;;15.27;;
27543;SDS011;17996;51.056;3.656;2023-06-24T08:57:42;20.13;;;15.65;;
27543;SDS011;17996;51.056;3.656;2023-06-24T09:00:08;29.23;;;15.73;;
27543;SDS011;17996;51.056;3.656;2023-06-24T09:02:35;23.30;;;14.63;;
27543;SDS011;17996;51.056;3.656;2023-06-24T09:05:04;20.45;;;15.00;;
27543;SDS011;17996;51.056;3.656;2023-06-24T09:07:32;21.50;;;15.70;;
27543;SDS011;17996;51.056;3.656;2023-06-24T09:09:58;20.30;;;14.50;;
27543;SDS011;17996;51.056;3.656;2023-06-24T09:12:25;24.83;;;14.30;;
27543;SDS011;17996;51.056;3.656;2023-06-24T09:14:51;23.25;;;14.65;;
27543;SDS011;17996;51.056;3.656;2023-06-24T09:17:18;17.70;;;13.20;;
27543;SDS011;17996;51.056;3.656;2023-06-24T09:19:47;22.27;;;12.20;;
27543;SDS011;17996;51.056;3.656;2023-06-24T09:22:16;16.80;;;11.10;;
27543;SDS011;17996;51.056;3.656;2023-06-24T09:24:46;13.90;;;10.63;;
27543;SDS011;17996;51.056;3.656;2023-06-24T09:27:13;19.75;;;12.98;;
27543;SDS011;17996;51.056;3.656;2023-06-24T09:29:41;18.15;;;14.05;;
27543;SDS011;17996;51.056;3.656;2023-06-24T09:32:07;17.63;;;12.65;;
27543;SDS011;17996;51.056;3.656;2023-06-24T09:34:34;12.07;;;8.75;;
27543;SDS011;17996;51.056;3.656;2023-06-24T09:37:00;14.55;;;10.15;;
27543;SDS011;17996;51.056;3.656;2023-06-24T09:39:26;22.73;;;11.13;;
27543;SDS011;17996;51.056;3.656;2023-06-24T09:41:56;15.15;;;12.77;;
27543;SDS011;17996;51.056;3.656;2023-06-24T09:44:23;15.10;;;12.38;;
27543;SDS011;17996;51.056;3.656;2023-06-24T09:46:49;21.02;;;11.65;;
27543;SDS011;17996;51.056;3.656;2023-06-24T09:49:15;14.90;;;11.23;;
27543;SDS011;17996;51.056;3.656;2023-06-24T09:51:43;17.27;;;11.73;;
27543;SDS011;17996;51.056;3.656;2023-06-24T09:54:11;17.65;;;8.82;;
27543;SDS011;17996;51.056;3.656;2023-06-24T09:56:59;11.70;;;8.93;;
27543;SDS011;17996;51.056;3.656;2023-06-24T09:59:25;12.38;;;9.07;;
27543;SDS011;17996;51.056;3.656;2023-06-24T10:01:54;13.40;;;6.82;;
27543;SDS011;17996;51.056;3.656;2023-06-24T10:04:21;12.82;;;8.88;;
27543;SDS011;17996;51.056;3.656;2023-06-24T10:06:47;16.00;;;10.18;;
27543;SDS011;17996;51.056;3.656;2023-06-24T10:09:14;19.13;;;8.80;;
27543;SDS011;17996;51.056;3.656;2023-06-24T10:11:46;16.00;;;10.23;;
27543;SDS011;17996;51.056;3.656;2023-06-24T10:14:13;17.98;;;10.55;;
27543;SDS011;17996;51.056;3.656;2023-06-24T10:16:40;16.35;;;10.90;;
27543;SDS011;17996;51.056;3.656;2023-06-24T10:19:07;15.65;;;10.00;;
27543;SDS011;17996;51.056;3.656;2023-06-24T10:21:52;13.93;;;9.55;;
27543;SDS011;17996;51.056;3.656;2023-06-24T10:24:28;10.57;;;8.85;;
27543;SDS011;17996;51.056;3.656;2023-06-24T10:29:34;11.35;;;9.73;;
27543;SDS011;17996;51.056;3.656;2023-06-24T10:32:02;10.73;;;5.88;;
27543;SDS011;17996;51.056;3.656;2023-06-24T10:39:47;15.40;;;9.68;;
27543;SDS011;17996;51.056;3.656;2023-06-24T10:42:56;14.52;;;10.48;;
27543;SDS011;17996;51.056;3.656;2023-06-24T10:47:35;12.45;;;7.43;;
27543;SDS011;17996;51.056;3.656;2023-06-24T10:50:02;17.02;;;10.63;;
27543;SDS011;17996;51.056;3.656;2023-06-24T10:52:28;10.88;;;8.85;;
27543;SDS011;17996;51.056;3.656;2023-06-24T10:54:55;14.55;;;9.63;;
27543;SDS011;17996;51.056;3.656;2023-06-24T10:57:23;11.65;;;9.50;;
27543;SDS011;17996;51.056;3.656;2023-06-24T10:59:53;15.95;;;11.70;;
27543;SDS011;17996;51.056;3.656;2023-06-24T11:02:23;14.18;;;10.63;;
27543;SDS011;17996;51.056;3.656;2023-06-24T11:07:17;14.35;;;7.68;;
27543;SDS011;17996;51.056;3.656;2023-06-24T11:12:17;15.57;;;5.57;;
27543;SDS011;17996;51.056;3.656;2023-06-24T11:14:43;8.38;;;5.88;;
27543;SDS011;17996;51.056;3.656;2023-06-24T11:17:09;7.70;;;5.68;;
27543;SDS011;17996;51.056;3.656;2023-06-24T11:19:34;12.43;;;6.68;;
27543;SDS011;17996;51.056;3.656;2023-06-24T11:22:04;8.57;;;6.38;;
27543;SDS011;17996;51.056;3.656;2023-06-24T11:24:31;12.00;;;6.10;;
27543;SDS011;17996;51.056;3.656;2023-06-24T11:26:57;7.40;;;6.63;;
27543;SDS011;17996;51.056;3.656;2023-06-24T11:29:23;10.25;;;7.55;;
27543;SDS011;17996;51.056;3.656;2023-06-24T11:31:49;7.22;;;6.18;;
27543;SDS011;17996;51.056;3.656;2023-06-24T11:34:16;17.02;;;8.02;;
27543;SDS011;17996;51.056;3.656;2023-06-24T11:36:42;15.52;;;10.20;;
27543;SDS011;17996;51.056;3.656;2023-06-24T11:39:19;11.63;;;7.93;;
27543;SDS011;17996;51.056;3.656;2023-06-24T11:41:49;10.52;;;8.73;;
27543;SDS011;17996;51.056;3.656;2023-06-24T11:44:16;12.35;;;9.38;;
27543;SDS011;17996;51.056;3.656;2023-06-24T11:46:46;14.13;;;8.85;;
27543;SDS011;17996;51.056;3.656;2023-06-24T11:49:12;17.67;;;11.60;;
27543;SDS011;17996;51.056;3.656;2023-06-24T11:51:45;17.73;;;12.90;;
27543;SDS011;17996;51.056;3.656;2023-06-24T11:54:16;15.40;;;10.65;;
27543;SDS011;17996;51.056;3.656;2023-06-24T11:56:43;8.82;;;6.80;;
27543;SDS011;17996;51.056;3.656;2023-06-24T11:59:17;12.48;;;7.15;;
27543;SDS011;17996;51.056;3.656;2023-06-24T12:01:58;8.77;;;7.55;;
27543;SDS011;17996;51.056;3.656;2023-06-24T12:04:28;13.15;;;7.15;;
27543;SDS011;17996;51.056;3.656;2023-06-24T12:06:55;14.50;;;8.75;;
27543;SDS011;17996;51.056;3.656;2023-06-24T12:09:21;14.73;;;10.13;;
27543;SDS011;17996;51.056;3.656;2023-06-24T12:11:47;9.77;;;8.02;;
27543;SDS011;17996;51.056;3.656;2023-06-24T12:14:12;9.43;;;7.57;;
27543;SDS011;17996;51.056;3.656;2023-06-24T12:16:39;10.27;;;6.80;;
27543;SDS011;17996;51.056;3.656;2023-06-24T12:19:08;11.63;;;8.80;;
27543;SDS011;17996;51.056;3.656;2023-06-24T12:21:34;13.18;;;9.00;;
27543;SDS011;17996;51.056;3.656;2023-06-24T12:24:01;12.38;;;10.32;;
27543;SDS011;17996;51.056;3.656;2023-06-24T12:26:27;12.50;;;8.77;;
27543;SDS011;17996;51.056;3.656;2023-06-24T12:28:55;9.05;;;7.18;;
27543;SDS011;17996;51.056;3.656;2023-06-24T12:31:21;12.63;;;10.00;;
27543;SDS011;17996;51.056;3.656;2023-06-24T12:33:48;12.80;;;11.40;;
27543;SDS011;17996;51.056;3.656;2023-06-24T12:36:14;14.63;;;10.80;;
27543;SDS011;17996;51.056;3.656;2023-06-24T12:38:39;12.43;;;9.50;;
27543;SDS011;17996;51.056;3.656;2023-06-24T12:41:05;12.15;;;8.05;;
27543;SDS011;17996;51.056;3.656;2023-06-24T12:43:31;12.40;;;8.63;;
27543;SDS011;17996;51.056;3.656;2023-06-24T12:45:58;7.65;;;6.45;;
27543;SDS011;17996;51.056;3.656;2023-06-24T12:48:23;16.45;;;8.77;;
27543;SDS011;17996;51.056;3.656;2023-06-24T12:50:49;11.10;;;7.68;;
27543;SDS011;17996;51.056;3.656;2023-06-24T12:53:18;8.60;;;6.93;;
27543;SDS011;17996;51.056;3.656;2023-06-24T12:55:44;12.25;;;7.93;;
27543;SDS011;17996;51.056;3.656;2023-06-24T12:58:10;12.73;;;7.43;;
27543;SDS011;17996;51.056;3.656;2023-06-24T13:00:35;11.50;;;5.70;;
27543;SDS011;17996;51.056;3.656;2023-06-24T13:03:01;9.23;;;6.95;;
27543;SDS011;17996;51.056;3.656;2023-06-24T13:05:27;9.43;;;5.85;;
27543;SDS011;17996;51.056;3.656;2023-06-24T13:07:52;10.15;;;5.35;;
27543;SDS011;17996;51.056;3.656;2023-06-24T13:10:18;6.38;;;4.32;;
27543;SDS011;17996;51.056;3.656;2023-06-24T13:12:44;8.27;;;5.30;;
27543;SDS011;17996;51.056;3.656;2023-06-24T13:15:10;10.35;;;5.72;;
27543;SDS011;17996;51.056;3.656;2023-06-24T13:17:35;10.38;;;7.97;;
27543;SDS011;17996;51.056;3.656;2023-06-24T13:20:01;6.32;;;4.93;;
27543;SDS011;17996;51.056;3.656;2023-06-24T13:22:30;6.97;;;4.65;;
27543;SDS011;17996;51.056;3.656;2023-06-24T13:24:56;11.15;;;6.75;;
27543;SDS011;17996;51.056;3.656;2023-06-24T13:27:22;12.20;;;9.13;;
27543;SDS011;17996;51.056;3.656;2023-06-24T13:29:47;12.40;;;8.15;;
27543;SDS011;17996;51.056;3.656;2023-06-24T13:32:13;12.13;;;7.47;;
27543;SDS011;17996;51.056;3.656;2023-06-24T13:34:39;12.93;;;6.43;;
27543;SDS011;17996;51.056;3.656;2023-06-24T13:37:04;8.68;;;6.10;;
27543;SDS011;17996;51.056;3.656;2023-06-24T13:39:30;9.23;;;5.32;;
27543;SDS011;17996;51.056;3.656;2023-06-24T13:41:57;11.15;;;6.22;;
27543;SDS011;17996;51.056;3.656;2023-06-24T13:44:23;6.95;;;5.63;;
27543;SDS011;17996;51.056;3.656;2023-06-24T13:46:49;7.63;;;6.55;;
27543;SDS011;17996;51.056;3.656;2023-06-24T13:49:18;8.65;;;6.40;;
27543;SDS011;17996;51.056;3.656;2023-06-24T13:51:44;10.93;;;6.75;;
27543;SDS011;17996;51.056;3.656;2023-06-24T13:54:09;9.10;;;6.00;;
27543;SDS011;17996;51.056;3.656;2023-06-24T13:56:35;7.97;;;5.53;;
27543;SDS011;17996;51.056;3.656;2023-06-24T13:59:01;6.30;;;4.55;;
27543;SDS011;17996;51.056;3.656;2023-06-24T14:01:27;5.85;;;4.93;;
27543;SDS011;17996;51.056;3.656;2023-06-24T14:03:56;6.00;;;3.80;;
27543;SDS011;17996;51.056;3.656;2023-06-24T14:06:22;12.00;;;5.88;;
27543;SDS011;17996;51.056;3.656;2023-06-24T14:08:49;11.82;;;5.57;;
27543;SDS011;17996;51.056;3.656;2023-06-24T14:11:15;5.18;;;4.57;;
27543;SDS011;17996;51.056;3.656;2023-06-24T14:13:41;6.78;;;4.80;;
27543;SDS011;17996;51.056;3.656;2023-06-24T14:16:08;6.45;;;4.68;;
27543;SDS011;17996;51.056;3.656;2023-06-24T14:18:35;8.70;;;4.45;;
27543;SDS011;17996;51.056;3.656;2023-06-24T14:21:02;9.35;;;4.82;;
27543;SDS011;17996;51.056;3.656;2023-06-24T14:23:29;6.03;;;3.75;;
27543;SDS011;17996;51.056;3.656;2023-06-24T14:25:56;9.88;;;3.70;;
27543;SDS011;17996;51.056;3.656;2023-06-24T14:28:21;6.07;;;3.40;;
27543;SDS011;17996;51.056;3.656;2023-06-24T14:30:47;8.43;;;3.17;;
27543;SDS011;17996;51.056;3.656;2023-06-24T14:33:13;6.55;;;2.97;;
27543;SDS011;17996;51.056;3.656;2023-06-24T14:35:39;21.10;;;4.28;;
27543;SDS011;17996;51.056;3.656;2023-06-24T14:38:06;9.43;;;3.20;;
27543;SDS011;17996;51.056;3.656;2023-06-24T14:40:32;4.00;;;3.08;;
27543;SDS011;17996;51.056;3.656;2023-06-24T14:42:58;5.45;;;3.50;;
27543;SDS011;17996;51.056;3.656;2023-06-24T14:45:24;6.03;;;3.97;;
27543;SDS011;17996;51.056;3.656;2023-06-24T14:47:50;10.10;;;3.20;;
27543;SDS011;17996;51.056;3.656;2023-06-24T14:50:15;5.15;;;3.40;;
27543;SDS011;17996;51.056;3.656;2023-06-24T14:52:41;4.93;;;3.90;;
27543;SDS011;17996;51.056;3.656;2023-06-24T14:55:07;4.20;;;3.00;;